Terminal Aerodrome Forecast
Issued by NWS

Current Version | Previous Version | Graphics & Text | Print | Product List | Glossary On
Versions: 1 2 3 4 5 6 7 8 9 10 11 12 13 14 15 16 17 18 19 20 21 22 23 24 25 26 27 28 29 30 31 32
000
FTUS41 KRNK 202324
TAFLWB
TAF
KLWB 202324Z 2100/2124 25003KT P6SM SCT250
     FM210300 VRB03KT P6SM OVC050
     FM210600 03004KT 4SM -RA OVC025
     FM211200 02006KT P6SM SCT004 OVC012
     FM211900 31007KT P6SM OVC018=

USA.gov is the U.S. government's official web portal to all federal, state and local government web resources and services.